createdAt,value
2023-03-16T00:01:20.478Z,1296.00
2023-03-16T07:04:20.879Z,508.00
2023-03-16T09:00:25.320Z,595.00
2023-03-16T10:08:24.306Z,510.00
2023-03-16T12:44:25.847Z,545.00
2023-03-16T12:56:26.393Z,500.00
2023-03-16T13:00:26.069Z,533.00
2023-03-16T13:04:26.401Z,518.00
2023-03-16T13:08:26.357Z,525.00
2023-03-16T13:12:26.397Z,532.00
2023-03-16T13:20:31.129Z,501.00
2023-03-16T13:28:26.895Z,503.00
2023-03-16T13:40:26.428Z,598.00
2023-03-16T13:44:26.413Z,617.00
2023-03-16T13:48:26.371Z,616.00
2023-03-16T13:52:25.967Z,615.00
2023-03-16T13:56:26.379Z,596.00
2023-03-16T14:00:26.406Z,542.00
2023-03-16T14:04:26.375Z,538.00
2023-03-16T14:08:26.879Z,531.00
2023-03-16T14:12:26.892Z,530.00
2023-03-16T14:16:26.954Z,510.00
2023-03-16T14:20:26.396Z,540.00
2023-03-16T14:24:26.386Z,560.00
2023-03-16T14:28:26.201Z,580.00
2023-03-16T14:32:26.503Z,604.00
2023-03-16T14:36:26.388Z,566.00
2023-03-16T14:40:26.403Z,589.00
2023-03-16T14:44:26.393Z,586.00
2023-03-16T14:48:26.431Z,528.00
2023-03-16T14:52:26.397Z,570.00
2023-03-16T14:56:26.903Z,581.00
2023-03-16T15:00:26.501Z,533.00
2023-03-16T15:04:26.924Z,545.00
2023-03-16T15:08:26.901Z,561.00
2023-03-16T15:12:26.777Z,562.00
2023-03-16T15:16:27.414Z,550.00
2023-03-16T15:20:27.443Z,520.00
2023-03-16T15:24:27.413Z,556.00
2023-03-16T15:28:27.439Z,556.00
2023-03-16T15:44:26.851Z,560.00
2023-03-16T15:52:26.955Z,499.00
2023-03-16T15:56:26.614Z,600.00
2023-03-16T16:00:26.948Z,548.00
2023-03-16T16:04:26.555Z,547.00
2023-03-16T16:08:26.945Z,578.00
2023-03-16T16:12:26.362Z,668.00
2023-03-16T16:16:26.449Z,742.00
2023-03-16T16:20:26.443Z,861.00
2023-03-16T18:20:28.116Z,1670.00
2023-03-16T18:24:28.255Z,1676.00
2023-03-16T18:28:28.362Z,1673.00
2023-03-16T18:32:28.649Z,1661.00
2023-03-16T18:36:28.714Z,1661.00
2023-03-16T18:40:29.163Z,1668.00
2023-03-16T18:44:29.075Z,1662.00
2023-03-16T18:48:29.282Z,1664.00
2023-03-16T18:52:29.459Z,1675.00
2023-03-16T18:56:29.658Z,1663.00
2023-03-16T19:00:30.007Z,1661.00
2023-03-16T19:04:30.116Z,1649.00
2023-03-16T19:08:30.319Z,1646.00
2023-03-16T19:12:30.296Z,1653.00
2023-03-16T19:16:30.304Z,1652.00
2023-03-16T19:20:30.318Z,1657.00
2023-03-16T19:24:30.224Z,1653.00
2023-03-16T19:28:30.211Z,1638.00
2023-03-16T19:32:30.202Z,1629.00
2023-03-16T19:36:30.503Z,1637.00
2023-03-16T19:40:30.491Z,1638.00
2023-03-16T19:44:30.714Z,1629.00
2023-03-16T19:48:30.937Z,1618.00
2023-03-16T19:52:31.291Z,1612.00
2023-03-16T19:56:31.366Z,1623.00
2023-03-16T20:00:31.536Z,1611.00
2023-03-16T20:04:31.747Z,1607.00
2023-03-16T20:08:31.883Z,1604.00
2023-03-16T20:12:31.957Z,1597.00
2023-03-16T20:16:32.063Z,1603.00
2023-03-16T20:20:32.222Z,1601.00
2023-03-16T20:24:32.307Z,1604.00
2023-03-16T21:04:32.654Z,1556.00
2023-03-16T21:08:32.656Z,1540.00
2023-03-16T21:12:32.782Z,1563.00
2023-03-16T21:16:32.731Z,1533.00
2023-03-16T21:20:32.753Z,1538.00
2023-03-16T21:24:32.793Z,1529.00
2023-03-16T21:28:32.864Z,1536.00
2023-03-16T21:32:32.919Z,1524.00
